East London, South Africa
Current Conditions -  °F | °C
As of 2:01 PM on Friday 28 Nov 2014 (Local Time) from FAEL Reporting Station
Few Clouds Few Clouds  
Wind Chill: 70°   Ceiling: Unl
Heat Index: 70°   Visibility: 6mi
Dew Point: 57°   Wind: 28mph
Humidity: 64%   Direction: 210°SSW
Pressure: 30.03"   Gusts: 39mph
Location:  32.97°S, 27.87°E
Report Text: FAEL 281201Z 21024G34KT 9999 FEW045 21/14 Q1017
Loading
Personal Weather Stations






























Interactive Weather Map New forecast layout! Learn more

10-Day Weather Forecast

Advertisements
Track Severe Weather on mobile